sensor_id;sensor_type;location;lat;lon;timestamp;P1;durP1;ratioP1;P2;durP2;ratioP2
36597;SDS011;22607;49.550;11.940;2023-06-14T00:01:19;7.88;;;2.50;;
36597;SDS011;22607;49.550;11.940;2023-06-14T00:03:48;6.72;;;2.10;;
36597;SDS011;22607;49.550;11.940;2023-06-14T00:06:14;6.88;;;2.40;;
36597;SDS011;22607;49.550;11.940;2023-06-14T00:08:41;7.50;;;2.83;;
36597;SDS011;22607;49.550;11.940;2023-06-14T00:11:08;8.25;;;2.25;;
36597;SDS011;22607;49.550;11.940;2023-06-14T00:13:35;7.40;;;2.33;;
36597;SDS011;22607;49.550;11.940;2023-06-14T00:16:01;7.57;;;2.20;;
36597;SDS011;22607;49.550;11.940;2023-06-14T00:18:30;5.90;;;2.10;;
36597;SDS011;22607;49.550;11.940;2023-06-14T00:20:57;7.30;;;2.38;;
36597;SDS011;22607;49.550;11.940;2023-06-14T00:23:23;6.90;;;2.28;;
36597;SDS011;22607;49.550;11.940;2023-06-14T00:25:50;6.30;;;2.00;;
36597;SDS011;22607;49.550;11.940;2023-06-14T00:28:16;6.07;;;2.10;;
36597;SDS011;22607;49.550;11.940;2023-06-14T00:30:43;6.68;;;2.50;;
36597;SDS011;22607;49.550;11.940;2023-06-14T00:33:13;6.15;;;2.03;;
36597;SDS011;22607;49.550;11.940;2023-06-14T00:35:41;6.10;;;2.10;;
36597;SDS011;22607;49.550;11.940;2023-06-14T00:38:07;7.38;;;2.47;;
36597;SDS011;22607;49.550;11.940;2023-06-14T00:40:34;7.55;;;2.45;;
36597;SDS011;22607;49.550;11.940;2023-06-14T00:43:01;6.38;;;2.08;;
36597;SDS011;22607;49.550;11.940;2023-06-14T00:45:27;6.70;;;2.20;;
36597;SDS011;22607;49.550;11.940;2023-06-14T00:47:54;7.95;;;2.50;;
36597;SDS011;22607;49.550;11.940;2023-06-14T00:50:22;7.32;;;2.42;;
36597;SDS011;22607;49.550;11.940;2023-06-14T00:52:49;6.28;;;2.17;;
36597;SDS011;22607;49.550;11.940;2023-06-14T00:55:17;6.95;;;2.40;;
36597;SDS011;22607;49.550;11.940;2023-06-14T00:57:44;7.68;;;2.20;;
36597;SDS011;22607;49.550;11.940;2023-06-14T01:00:11;7.38;;;2.00;;
36597;SDS011;22607;49.550;11.940;2023-06-14T01:02:39;6.82;;;2.55;;
36597;SDS011;22607;49.550;11.940;2023-06-14T01:05:06;6.07;;;2.10;;
36597;SDS011;22607;49.550;11.940;2023-06-14T01:15:53;6.57;;;2.42;;
36597;SDS011;22607;49.550;11.940;2023-06-14T01:18:22;7.82;;;2.60;;
36597;SDS011;22607;49.550;11.940;2023-06-14T01:20:50;6.55;;;2.40;;
36597;SDS011;22607;49.550;11.940;2023-06-14T01:23:17;6.65;;;2.30;;
36597;SDS011;22607;49.550;11.940;2023-06-14T01:25:44;6.72;;;2.40;;
36597;SDS011;22607;49.550;11.940;2023-06-14T01:28:13;6.75;;;2.10;;
36597;SDS011;22607;49.550;11.940;2023-06-14T01:30:44;7.47;;;2.38;;
36597;SDS011;22607;49.550;11.940;2023-06-14T01:33:16;7.75;;;2.40;;
36597;SDS011;22607;49.550;11.940;2023-06-14T01:35:49;6.95;;;2.47;;
36597;SDS011;22607;49.550;11.940;2023-06-14T01:38:18;11.15;;;2.45;;
36597;SDS011;22607;49.550;11.940;2023-06-14T01:40:49;6.15;;;2.40;;
36597;SDS011;22607;49.550;11.940;2023-06-14T01:43:18;9.45;;;2.60;;
36597;SDS011;22607;49.550;11.940;2023-06-14T01:45:46;6.20;;;2.17;;
36597;SDS011;22607;49.550;11.940;2023-06-14T01:48:18;6.10;;;2.25;;
36597;SDS011;22607;49.550;11.940;2023-06-14T01:50:45;6.30;;;2.20;;
36597;SDS011;22607;49.550;11.940;2023-06-14T01:53:14;8.00;;;2.38;;
36597;SDS011;22607;49.550;11.940;2023-06-14T01:55:40;6.60;;;2.28;;
36597;SDS011;22607;49.550;11.940;2023-06-14T01:58:10;6.43;;;2.38;;
36597;SDS011;22607;49.550;11.940;2023-06-14T02:00:37;6.63;;;2.28;;
36597;SDS011;22607;49.550;11.940;2023-06-14T02:03:04;9.38;;;2.60;;
36597;SDS011;22607;49.550;11.940;2023-06-14T02:05:30;7.10;;;2.60;;
36597;SDS011;22607;49.550;11.940;2023-06-14T02:07:57;7.60;;;2.70;;
36597;SDS011;22607;49.550;11.940;2023-06-14T02:10:23;7.57;;;2.55;;
36597;SDS011;22607;49.550;11.940;2023-06-14T02:12:50;5.95;;;2.20;;
36597;SDS011;22607;49.550;11.940;2023-06-14T02:15:17;6.70;;;2.65;;
36597;SDS011;22607;49.550;11.940;2023-06-14T02:17:44;6.47;;;2.25;;
36597;SDS011;22607;49.550;11.940;2023-06-14T02:20:11;6.88;;;2.70;;
36597;SDS011;22607;49.550;11.940;2023-06-14T02:22:39;5.65;;;2.03;;
36597;SDS011;22607;49.550;11.940;2023-06-14T02:25:05;6.50;;;2.38;;
36597;SDS011;22607;49.550;11.940;2023-06-14T02:27:33;6.68;;;2.47;;
36597;SDS011;22607;49.550;11.940;2023-06-14T02:30:01;7.05;;;2.22;;
36597;SDS011;22607;49.550;11.940;2023-06-14T02:32:28;7.00;;;2.35;;
36597;SDS011;22607;49.550;11.940;2023-06-14T02:34:55;7.25;;;2.78;;
36597;SDS011;22607;49.550;11.940;2023-06-14T02:37:21;8.18;;;2.75;;
36597;SDS011;22607;49.550;11.940;2023-06-14T02:39:49;8.50;;;2.67;;
36597;SDS011;22607;49.550;11.940;2023-06-14T02:42:16;7.10;;;2.70;;
36597;SDS011;22607;49.550;11.940;2023-06-14T02:44:42;8.60;;;2.85;;
36597;SDS011;22607;49.550;11.940;2023-06-14T02:47:09;7.32;;;2.60;;
36597;SDS011;22607;49.550;11.940;2023-06-14T02:49:38;8.02;;;3.05;;
36597;SDS011;22607;49.550;11.940;2023-06-14T02:52:05;9.40;;;2.92;;
36597;SDS011;22607;49.550;11.940;2023-06-14T02:54:32;7.75;;;2.60;;
36597;SDS011;22607;49.550;11.940;2023-06-14T02:56:59;6.65;;;2.70;;
36597;SDS011;22607;49.550;11.940;2023-06-14T02:59:26;7.57;;;2.65;;
36597;SDS011;22607;49.550;11.940;2023-06-14T03:01:52;6.75;;;2.53;;
36597;SDS011;22607;49.550;11.940;2023-06-14T03:04:19;7.40;;;2.70;;
36597;SDS011;22607;49.550;11.940;2023-06-14T03:06:47;7.70;;;2.60;;
36597;SDS011;22607;49.550;11.940;2023-06-14T03:09:16;8.60;;;2.70;;
36597;SDS011;22607;49.550;11.940;2023-06-14T03:11:43;7.05;;;2.90;;
36597;SDS011;22607;49.550;11.940;2023-06-14T03:14:10;7.47;;;3.10;;
36597;SDS011;22607;49.550;11.940;2023-06-14T03:16:37;6.93;;;2.63;;
36597;SDS011;22607;49.550;11.940;2023-06-14T03:19:04;7.68;;;3.15;;
36597;SDS011;22607;49.550;11.940;2023-06-14T03:21:31;7.45;;;2.75;;
36597;SDS011;22607;49.550;11.940;2023-06-14T03:23:58;7.80;;;2.60;;
36597;SDS011;22607;49.550;11.940;2023-06-14T03:26:25;7.53;;;2.95;;
36597;SDS011;22607;49.550;11.940;2023-06-14T03:28:52;6.53;;;2.45;;
36597;SDS011;22607;49.550;11.940;2023-06-14T03:31:19;7.60;;;2.97;;
36597;SDS011;22607;49.550;11.940;2023-06-14T03:33:46;7.50;;;2.70;;
36597;SDS011;22607;49.550;11.940;2023-06-14T03:36:13;7.10;;;2.70;;
36597;SDS011;22607;49.550;11.940;2023-06-14T03:38:40;7.35;;;3.10;;
36597;SDS011;22607;49.550;11.940;2023-06-14T03:41:07;7.25;;;2.75;;
36597;SDS011;22607;49.550;11.940;2023-06-14T03:43:33;7.30;;;2.80;;
36597;SDS011;22607;49.550;11.940;2023-06-14T03:46:01;8.93;;;3.20;;
36597;SDS011;22607;49.550;11.940;2023-06-14T03:48:27;8.07;;;3.40;;
36597;SDS011;22607;49.550;11.940;2023-06-14T03:50:54;6.95;;;2.70;;
36597;SDS011;22607;49.550;11.940;2023-06-14T03:53:24;7.32;;;2.92;;
36597;SDS011;22607;49.550;11.940;2023-06-14T03:55:51;8.52;;;3.20;;
36597;SDS011;22607;49.550;11.940;2023-06-14T03:58:22;7.80;;;3.20;;
36597;SDS011;22607;49.550;11.940;2023-06-14T04:00:49;7.00;;;2.90;;
36597;SDS011;22607;49.550;11.940;2023-06-14T04:03:15;9.40;;;3.13;;
36597;SDS011;22607;49.550;11.940;2023-06-14T04:05:42;7.80;;;3.00;;
36597;SDS011;22607;49.550;11.940;2023-06-14T04:08:09;7.35;;;3.10;;
36597;SDS011;22607;49.550;11.940;2023-06-14T04:10:36;7.65;;;3.40;;
36597;SDS011;22607;49.550;11.940;2023-06-14T04:13:04;7.82;;;3.17;;
36597;SDS011;22607;49.550;11.940;2023-06-14T04:15:31;7.45;;;3.10;;
36597;SDS011;22607;49.550;11.940;2023-06-14T04:17:57;8.35;;;2.80;;
36597;SDS011;22607;49.550;11.940;2023-06-14T04:20:24;7.75;;;3.10;;
36597;SDS011;22607;49.550;11.940;2023-06-14T04:22:51;7.28;;;2.90;;
36597;SDS011;22607;49.550;11.940;2023-06-14T04:25:18;7.50;;;2.97;;
36597;SDS011;22607;49.550;11.940;2023-06-14T04:27:49;7.60;;;3.10;;
36597;SDS011;22607;49.550;11.940;2023-06-14T04:30:16;8.85;;;3.58;;
36597;SDS011;22607;49.550;11.940;2023-06-14T04:32:43;7.15;;;2.97;;
36597;SDS011;22607;49.550;11.940;2023-06-14T04:35:10;8.45;;;3.85;;
36597;SDS011;22607;49.550;11.940;2023-06-14T04:37:37;7.30;;;2.92;;
36597;SDS011;22607;49.550;11.940;2023-06-14T04:40:06;7.30;;;3.30;;
36597;SDS011;22607;49.550;11.940;2023-06-14T04:42:37;9.70;;;4.17;;
36597;SDS011;22607;49.550;11.940;2023-06-14T04:45:04;9.68;;;4.18;;
36597;SDS011;22607;49.550;11.940;2023-06-14T04:47:33;7.82;;;3.10;;
36597;SDS011;22607;49.550;11.940;2023-06-14T04:50:00;8.05;;;3.28;;
36597;SDS011;22607;49.550;11.940;2023-06-14T04:52:29;9.15;;;3.63;;
36597;SDS011;22607;49.550;11.940;2023-06-14T04:54:56;7.85;;;3.30;;
36597;SDS011;22607;49.550;11.940;2023-06-14T04:57:24;8.23;;;3.53;;
36597;SDS011;22607;49.550;11.940;2023-06-14T04:59:51;7.25;;;3.38;;
36597;SDS011;22607;49.550;11.940;2023-06-14T05:02:24;9.38;;;4.18;;
36597;SDS011;22607;49.550;11.940;2023-06-14T05:04:52;8.15;;;3.70;;
36597;SDS011;22607;49.550;11.940;2023-06-14T05:07:19;7.50;;;3.20;;
36597;SDS011;22607;49.550;11.940;2023-06-14T05:09:46;7.97;;;3.25;;
36597;SDS011;22607;49.550;11.940;2023-06-14T05:12:13;8.80;;;3.78;;
36597;SDS011;22607;49.550;11.940;2023-06-14T05:14:39;8.73;;;3.80;;
36597;SDS011;22607;49.550;11.940;2023-06-14T05:17:06;8.70;;;3.58;;
36597;SDS011;22607;49.550;11.940;2023-06-14T05:19:33;8.43;;;3.78;;
36597;SDS011;22607;49.550;11.940;2023-06-14T05:22:00;8.02;;;3.40;;
36597;SDS011;22607;49.550;11.940;2023-06-14T05:24:29;7.97;;;3.38;;
36597;SDS011;22607;49.550;11.940;2023-06-14T05:26:58;7.20;;;2.78;;
36597;SDS011;22607;49.550;11.940;2023-06-14T05:29:25;7.30;;;3.20;;
36597;SDS011;22607;49.550;11.940;2023-06-14T05:31:55;8.75;;;3.20;;
36597;SDS011;22607;49.550;11.940;2023-06-14T05:34:22;8.80;;;3.22;;
36597;SDS011;22607;49.550;11.940;2023-06-14T05:36:49;8.27;;;3.20;;
36597;SDS011;22607;49.550;11.940;2023-06-14T05:39:16;7.00;;;3.17;;
36597;SDS011;22607;49.550;11.940;2023-06-14T05:41:43;8.90;;;3.53;;
36597;SDS011;22607;49.550;11.940;2023-06-14T05:44:09;7.63;;;2.80;;
36597;SDS011;22607;49.550;11.940;2023-06-14T05:46:37;9.75;;;3.20;;
36597;SDS011;22607;49.550;11.940;2023-06-14T05:49:06;9.13;;;3.33;;
36597;SDS011;22607;49.550;11.940;2023-06-14T05:51:33;9.25;;;3.50;;
36597;SDS011;22607;49.550;11.940;2023-06-14T05:54:01;8.60;;;3.40;;
36597;SDS011;22607;49.550;11.940;2023-06-14T05:56:27;7.40;;;3.20;;
36597;SDS011;22607;49.550;11.940;2023-06-14T05:58:54;7.75;;;3.28;;
36597;SDS011;22607;49.550;11.940;2023-06-14T06:01:23;8.30;;;2.92;;
36597;SDS011;22607;49.550;11.940;2023-06-14T06:03:50;8.13;;;3.40;;
36597;SDS011;22607;49.550;11.940;2023-06-14T06:06:16;7.30;;;2.80;;
36597;SDS011;22607;49.550;11.940;2023-06-14T06:08:43;7.25;;;2.95;;
36597;SDS011;22607;49.550;11.940;2023-06-14T06:11:10;7.93;;;3.40;;
36597;SDS011;22607;49.550;11.940;2023-06-14T06:13:38;8.10;;;3.50;;
36597;SDS011;22607;49.550;11.940;2023-06-14T06:16:05;7.80;;;3.00;;
36597;SDS011;22607;49.550;11.940;2023-06-14T06:18:32;7.32;;;2.95;;
36597;SDS011;22607;49.550;11.940;2023-06-14T06:20:58;8.25;;;3.42;;
36597;SDS011;22607;49.550;11.940;2023-06-14T06:23:25;7.90;;;3.13;;
36597;SDS011;22607;49.550;11.940;2023-06-14T06:25:52;8.65;;;3.00;;
36597;SDS011;22607;49.550;11.940;2023-06-14T06:28:18;7.30;;;2.70;;
36597;SDS011;22607;49.550;11.940;2023-06-14T06:30:45;8.20;;;3.10;;
36597;SDS011;22607;49.550;11.940;2023-06-14T06:33:12;7.00;;;2.80;;
36597;SDS011;22607;49.550;11.940;2023-06-14T06:35:40;7.05;;;3.05;;
36597;SDS011;22607;49.550;11.940;2023-06-14T06:38:07;8.80;;;3.53;;
36597;SDS011;22607;49.550;11.940;2023-06-14T06:40:34;7.85;;;3.10;;
36597;SDS011;22607;49.550;11.940;2023-06-14T06:43:02;7.47;;;3.47;;
36597;SDS011;22607;49.550;11.940;2023-06-14T06:45:29;6.80;;;2.70;;
36597;SDS011;22607;49.550;11.940;2023-06-14T06:47:56;7.50;;;3.55;;
36597;SDS011;22607;49.550;11.940;2023-06-14T06:50:23;7.75;;;2.88;;
36597;SDS011;22607;49.550;11.940;2023-06-14T06:52:51;7.15;;;2.55;;
36597;SDS011;22607;49.550;11.940;2023-06-14T06:55:19;8.05;;;2.70;;
36597;SDS011;22607;49.550;11.940;2023-06-14T06:57:46;6.57;;;2.50;;
36597;SDS011;22607;49.550;11.940;2023-06-14T07:00:13;7.10;;;2.67;;
36597;SDS011;22607;49.550;11.940;2023-06-14T07:02:40;7.28;;;2.58;;
36597;SDS011;22607;49.550;11.940;2023-06-14T07:05:07;6.97;;;2.92;;
36597;SDS011;22607;49.550;11.940;2023-06-14T07:07:34;7.65;;;2.55;;
36597;SDS011;22607;49.550;11.940;2023-06-14T07:10:01;9.93;;;3.05;;
36597;SDS011;22607;49.550;11.940;2023-06-14T07:12:31;7.07;;;2.83;;
36597;SDS011;22607;49.550;11.940;2023-06-14T07:15:00;7.68;;;2.95;;
36597;SDS011;22607;49.550;11.940;2023-06-14T07:17:27;7.90;;;2.97;;
36597;SDS011;22607;49.550;11.940;2023-06-14T07:19:53;8.45;;;2.90;;
36597;SDS011;22607;49.550;11.940;2023-06-14T07:22:20;7.50;;;2.90;;
36597;SDS011;22607;49.550;11.940;2023-06-14T07:24:47;6.90;;;2.80;;
36597;SDS011;22607;49.550;11.940;2023-06-14T07:27:13;7.20;;;2.90;;
36597;SDS011;22607;49.550;11.940;2023-06-14T07:29:41;7.22;;;2.50;;
36597;SDS011;22607;49.550;11.940;2023-06-14T07:32:07;8.18;;;2.88;;
36597;SDS011;22607;49.550;11.940;2023-06-14T07:34:34;7.13;;;2.85;;
36597;SDS011;22607;49.550;11.940;2023-06-14T07:37:00;8.77;;;2.70;;
36597;SDS011;22607;49.550;11.940;2023-06-14T07:39:27;9.98;;;3.00;;
36597;SDS011;22607;49.550;11.940;2023-06-14T07:41:54;8.23;;;2.33;;
36597;SDS011;22607;49.550;11.940;2023-06-14T07:44:21;7.40;;;2.55;;
36597;SDS011;22607;49.550;11.940;2023-06-14T07:46:48;9.50;;;3.00;;
36597;SDS011;22607;49.550;11.940;2023-06-14T07:49:15;8.95;;;3.22;;
36597;SDS011;22607;49.550;11.940;2023-06-14T07:51:42;7.43;;;2.70;;
36597;SDS011;22607;49.550;11.940;2023-06-14T07:54:10;9.60;;;3.35;;
36597;SDS011;22607;49.550;11.940;2023-06-14T07:56:37;6.93;;;3.00;;
36597;SDS011;22607;49.550;11.940;2023-06-14T07:59:04;6.78;;;2.63;;
36597;SDS011;22607;49.550;11.940;2023-06-14T08:01:32;7.78;;;2.83;;
36597;SDS011;22607;49.550;11.940;2023-06-14T08:03:59;6.82;;;2.80;;
36597;SDS011;22607;49.550;11.940;2023-06-14T08:06:26;7.72;;;2.55;;
36597;SDS011;22607;49.550;11.940;2023-06-14T08:08:53;6.68;;;2.53;;
36597;SDS011;22607;49.550;11.940;2023-06-14T08:11:19;8.57;;;2.65;;
36597;SDS011;22607;49.550;11.940;2023-06-14T08:13:47;8.00;;;2.80;;
36597;SDS011;22607;49.550;11.940;2023-06-14T08:16:13;7.13;;;2.70;;
36597;SDS011;22607;49.550;11.940;2023-06-14T08:18:58;6.97;;;2.65;;
36597;SDS011;22607;49.550;11.940;2023-06-14T08:21:24;6.85;;;2.80;;
36597;SDS011;22607;49.550;11.940;2023-06-14T08:23:57;6.95;;;2.50;;
36597;SDS011;22607;49.550;11.940;2023-06-14T08:26:24;10.63;;;2.60;;
36597;SDS011;22607;49.550;11.940;2023-06-14T08:28:55;8.15;;;2.67;;
36597;SDS011;22607;49.550;11.940;2023-06-14T08:31:22;7.22;;;2.72;;
36597;SDS011;22607;49.550;11.940;2023-06-14T08:33:50;6.30;;;2.38;;
36597;SDS011;22607;49.550;11.940;2023-06-14T08:36:16;7.10;;;2.53;;
36597;SDS011;22607;49.550;11.940;2023-06-14T08:38:43;7.07;;;2.88;;
36597;SDS011;22607;49.550;11.940;2023-06-14T08:41:11;6.53;;;2.47;;
36597;SDS011;22607;49.550;11.940;2023-06-14T08:43:40;7.50;;;2.92;;
36597;SDS011;22607;49.550;11.940;2023-06-14T08:46:06;6.90;;;2.80;;
36597;SDS011;22607;49.550;11.940;2023-06-14T08:48:37;8.63;;;2.70;;
36597;SDS011;22607;49.550;11.940;2023-06-14T08:51:04;9.38;;;2.80;;
36597;SDS011;22607;49.550;11.940;2023-06-14T08:53:32;7.28;;;2.83;;
36597;SDS011;22607;49.550;11.940;2023-06-14T08:59:07;7.13;;;2.58;;
36597;SDS011;22607;49.550;11.940;2023-06-14T09:01:36;6.78;;;2.75;;
36597;SDS011;22607;49.550;11.940;2023-06-14T09:04:03;6.88;;;2.67;;
36597;SDS011;22607;49.550;11.940;2023-06-14T09:06:31;7.22;;;2.78;;
36597;SDS011;22607;49.550;11.940;2023-06-14T09:08:59;6.68;;;2.65;;
36597;SDS011;22607;49.550;11.940;2023-06-14T09:11:25;7.18;;;2.70;;
36597;SDS011;22607;49.550;11.940;2023-06-14T09:13:53;6.00;;;2.45;;
36597;SDS011;22607;49.550;11.940;2023-06-14T09:16:19;7.05;;;2.70;;
36597;SDS011;22607;49.550;11.940;2023-06-14T09:18:47;8.43;;;2.90;;
36597;SDS011;22607;49.550;11.940;2023-06-14T09:21:15;7.88;;;2.80;;
36597;SDS011;22607;49.550;11.940;2023-06-14T09:23:44;7.10;;;3.10;;
36597;SDS011;22607;49.550;11.940;2023-06-14T09:26:13;7.55;;;2.70;;
36597;SDS011;22607;49.550;11.940;2023-06-14T09:28:44;7.65;;;3.13;;
36597;SDS011;22607;49.550;11.940;2023-06-14T09:31:13;7.00;;;2.90;;
36597;SDS011;22607;49.550;11.940;2023-06-14T09:33:42;7.45;;;2.70;;
36597;SDS011;22607;49.550;11.940;2023-06-14T09:36:15;6.78;;;2.25;;
36597;SDS011;22607;49.550;11.940;2023-06-14T09:39:04;7.68;;;2.90;;
36597;SDS011;22607;49.550;11.940;2023-06-14T09:41:34;8.07;;;2.70;;
36597;SDS011;22607;49.550;11.940;2023-06-14T09:44:01;9.15;;;2.70;;
36597;SDS011;22607;49.550;11.940;2023-06-14T09:46:35;8.88;;;3.13;;
36597;SDS011;22607;49.550;11.940;2023-06-14T09:49:03;7.38;;;2.63;;
36597;SDS011;22607;49.550;11.940;2023-06-14T09:51:30;8.18;;;2.92;;
36597;SDS011;22607;49.550;11.940;2023-06-14T09:54:01;9.88;;;3.00;;
36597;SDS011;22607;49.550;11.940;2023-06-14T09:59:07;7.90;;;2.92;;
36597;SDS011;22607;49.550;11.940;2023-06-14T10:01:39;7.15;;;2.88;;
36597;SDS011;22607;49.550;11.940;2023-06-14T10:04:09;8.30;;;3.00;;
36597;SDS011;22607;49.550;11.940;2023-06-14T10:06:39;6.93;;;2.60;;
36597;SDS011;22607;49.550;11.940;2023-06-14T10:09:08;7.72;;;2.85;;
36597;SDS011;22607;49.550;11.940;2023-06-14T10:11:36;9.40;;;2.72;;
36597;SDS011;22607;49.550;11.940;2023-06-14T10:14:10;6.88;;;2.45;;
36597;SDS011;22607;49.550;11.940;2023-06-14T10:16:41;7.25;;;2.42;;
36597;SDS011;22607;49.550;11.940;2023-06-14T10:22:11;8.00;;;2.53;;
36597;SDS011;22607;49.550;11.940;2023-06-14T10:24:43;7.50;;;2.78;;
36597;SDS011;22607;49.550;11.940;2023-06-14T10:30:02;7.95;;;2.53;;
36597;SDS011;22607;49.550;11.940;2023-06-14T10:32:32;7.95;;;2.70;;
36597;SDS011;22607;49.550;11.940;2023-06-14T10:34:59;6.45;;;2.45;;
36597;SDS011;22607;49.550;11.940;2023-06-14T10:37:35;6.90;;;2.55;;
36597;SDS011;22607;49.550;11.940;2023-06-14T10:42:35;6.82;;;2.67;;
36597;SDS011;22607;49.550;11.940;2023-06-14T10:45:01;8.23;;;2.70;;
36597;SDS011;22607;49.550;11.940;2023-06-14T10:52:33;7.00;;;2.42;;
36597;SDS011;22607;49.550;11.940;2023-06-14T10:55:16;9.45;;;2.53;;
36597;SDS011;22607;49.550;11.940;2023-06-14T11:00:19;6.82;;;2.75;;
36597;SDS011;22607;49.550;11.940;2023-06-14T11:05:52;7.38;;;2.28;;
36597;SDS011;22607;49.550;11.940;2023-06-14T11:11:13;7.30;;;2.58;;
36597;SDS011;22607;49.550;11.940;2023-06-14T11:13:44;6.72;;;2.55;;
36597;SDS011;22607;49.550;11.940;2023-06-14T11:16:12;6.07;;;2.20;;
36597;SDS011;22607;49.550;11.940;2023-06-14T11:21:10;6.80;;;2.40;;
36597;SDS011;22607;49.550;11.940;2023-06-14T11:23:37;6.05;;;2.20;;
36597;SDS011;22607;49.550;11.940;2023-06-14T11:26:04;6.88;;;2.33;;
36597;SDS011;22607;49.550;11.940;2023-06-14T11:28:40;7.97;;;2.65;;
36597;SDS011;22607;49.550;11.940;2023-06-14T11:31:07;8.10;;;2.33;;
36597;SDS011;22607;49.550;11.940;2023-06-14T11:33:36;6.55;;;2.33;;
36597;SDS011;22607;49.550;11.940;2023-06-14T11:36:03;8.05;;;2.17;;
36597;SDS011;22607;49.550;11.940;2023-06-14T11:38:35;6.65;;;2.53;;
36597;SDS011;22607;49.550;11.940;2023-06-14T11:41:03;7.10;;;2.42;;
36597;SDS011;22607;49.550;11.940;2023-06-14T11:43:29;7.65;;;2.40;;
36597;SDS011;22607;49.550;11.940;2023-06-14T11:45:58;8.57;;;2.40;;
36597;SDS011;22607;49.550;11.940;2023-06-14T11:48:51;6.82;;;2.50;;
36597;SDS011;22607;49.550;11.940;2023-06-14T11:51:18;6.53;;;2.33;;
36597;SDS011;22607;49.550;11.940;2023-06-14T11:53:45;6.72;;;2.38;;
36597;SDS011;22607;49.550;11.940;2023-06-14T11:56:13;7.97;;;2.47;;
36597;SDS011;22607;49.550;11.940;2023-06-14T11:58:43;7.97;;;2.70;;
36597;SDS011;22607;49.550;11.940;2023-06-14T12:01:16;6.53;;;2.28;;
36597;SDS011;22607;49.550;11.940;2023-06-14T12:03:47;7.35;;;2.22;;
36597;SDS011;22607;49.550;11.940;2023-06-14T12:06:15;8.50;;;2.30;;
36597;SDS011;22607;49.550;11.940;2023-06-14T12:08:42;7.32;;;2.47;;
36597;SDS011;22607;49.550;11.940;2023-06-14T12:11:11;6.47;;;2.17;;
36597;SDS011;22607;49.550;11.940;2023-06-14T12:13:40;7.75;;;2.30;;
36597;SDS011;22607;49.550;11.940;2023-06-14T12:16:08;8.40;;;2.70;;
36597;SDS011;22607;49.550;11.940;2023-06-14T12:18:36;5.90;;;2.15;;
36597;SDS011;22607;49.550;11.940;2023-06-14T12:21:04;7.80;;;2.17;;
36597;SDS011;22607;49.550;11.940;2023-06-14T12:26:09;6.38;;;2.08;;
36597;SDS011;22607;49.550;11.940;2023-06-14T12:28:39;6.32;;;2.40;;
36597;SDS011;22607;49.550;11.940;2023-06-14T12:31:06;7.03;;;2.50;;
36597;SDS011;22607;49.550;11.940;2023-06-14T12:33:33;5.82;;;2.10;;
36597;SDS011;22607;49.550;11.940;2023-06-14T12:36:00;8.55;;;2.40;;
36597;SDS011;22607;49.550;11.940;2023-06-14T12:38:29;6.80;;;2.30;;
36597;SDS011;22607;49.550;11.940;2023-06-14T12:40:56;6.07;;;2.25;;
36597;SDS011;22607;49.550;11.940;2023-06-14T12:43:24;7.70;;;2.65;;
36597;SDS011;22607;49.550;11.940;2023-06-14T12:45:51;8.15;;;2.00;;
36597;SDS011;22607;49.550;11.940;2023-06-14T12:48:17;6.63;;;2.22;;
36597;SDS011;22607;49.550;11.940;2023-06-14T12:50:46;6.10;;;2.03;;
36597;SDS011;22607;49.550;11.940;2023-06-14T12:53:13;7.28;;;2.17;;
36597;SDS011;22607;49.550;11.940;2023-06-14T12:55:41;7.38;;;2.05;;
36597;SDS011;22607;49.550;11.940;2023-06-14T12:58:07;6.07;;;1.90;;
36597;SDS011;22607;49.550;11.940;2023-06-14T13:00:35;6.45;;;2.00;;
36597;SDS011;22607;49.550;11.940;2023-06-14T13:03:02;6.65;;;2.10;;
36597;SDS011;22607;49.550;11.940;2023-06-14T13:05:29;8.20;;;2.20;;
36597;SDS011;22607;49.550;11.940;2023-06-14T13:07:57;7.45;;;2.00;;
36597;SDS011;22607;49.550;11.940;2023-06-14T13:10:24;5.25;;;1.80;;
36597;SDS011;22607;49.550;11.940;2023-06-14T13:12:53;5.95;;;2.10;;
36597;SDS011;22607;49.550;11.940;2023-06-14T13:15:20;5.50;;;1.83;;
36597;SDS011;22607;49.550;11.940;2023-06-14T13:17:46;5.43;;;1.90;;
36597;SDS011;22607;49.550;11.940;2023-06-14T13:20:16;6.85;;;1.92;;
36597;SDS011;22607;49.550;11.940;2023-06-14T13:22:46;5.93;;;1.77;;
36597;SDS011;22607;49.550;11.940;2023-06-14T13:25:13;6.03;;;2.00;;
36597;SDS011;22607;49.550;11.940;2023-06-14T13:27:40;5.32;;;1.77;;
36597;SDS011;22607;49.550;11.940;2023-06-14T13:30:06;6.20;;;1.90;;
36597;SDS011;22607;49.550;11.940;2023-06-14T13:32:33;8.43;;;2.25;;
36597;SDS011;22607;49.550;11.940;2023-06-14T13:35:00;6.70;;;2.22;;
36597;SDS011;22607;49.550;11.940;2023-06-14T13:37:27;6.30;;;2.00;;
36597;SDS011;22607;49.550;11.940;2023-06-14T13:39:54;7.20;;;2.17;;
36597;SDS011;22607;49.550;11.940;2023-06-14T13:42:20;5.82;;;1.98;;
36597;SDS011;22607;49.550;11.940;2023-06-14T13:44:54;5.20;;;1.90;;
36597;SDS011;22607;49.550;11.940;2023-06-14T13:47:22;7.30;;;2.05;;
36597;SDS011;22607;49.550;11.940;2023-06-14T13:49:57;5.90;;;2.03;;
36597;SDS011;22607;49.550;11.940;2023-06-14T13:52:25;6.30;;;1.98;;
36597;SDS011;22607;49.550;11.940;2023-06-14T13:54:52;5.80;;;1.67;;
36597;SDS011;22607;49.550;11.940;2023-06-14T13:57:19;5.55;;;2.03;;
36597;SDS011;22607;49.550;11.940;2023-06-14T13:59:46;5.22;;;1.65;;
36597;SDS011;22607;49.550;11.940;2023-06-14T14:02:12;6.32;;;1.75;;
36597;SDS011;22607;49.550;11.940;2023-06-14T14:04:39;4.50;;;1.70;;
36597;SDS011;22607;49.550;11.940;2023-06-14T14:07:07;6.30;;;2.05;;
36597;SDS011;22607;49.550;11.940;2023-06-14T14:09:34;6.65;;;1.70;;
36597;SDS011;22607;49.550;11.940;2023-06-14T14:12:02;6.97;;;2.10;;
36597;SDS011;22607;49.550;11.940;2023-06-14T14:14:47;5.30;;;1.83;;
36597;SDS011;22607;49.550;11.940;2023-06-14T14:17:14;5.80;;;1.92;;
36597;SDS011;22607;49.550;11.940;2023-06-14T14:19:40;5.70;;;1.70;;
36597;SDS011;22607;49.550;11.940;2023-06-14T14:22:07;5.85;;;2.38;;
36597;SDS011;22607;49.550;11.940;2023-06-14T14:24:34;6.28;;;2.10;;
36597;SDS011;22607;49.550;11.940;2023-06-14T14:27:01;5.72;;;1.70;;
36597;SDS011;22607;49.550;11.940;2023-06-14T14:29:28;6.15;;;1.75;;
36597;SDS011;22607;49.550;11.940;2023-06-14T14:31:58;7.15;;;2.10;;
36597;SDS011;22607;49.550;11.940;2023-06-14T14:34:24;6.57;;;2.20;;
36597;SDS011;22607;49.550;11.940;2023-06-14T14:36:51;5.25;;;1.80;;
36597;SDS011;22607;49.550;11.940;2023-06-14T14:39:18;5.00;;;1.60;;
36597;SDS011;22607;49.550;11.940;2023-06-14T14:41:45;5.50;;;2.22;;
36597;SDS011;22607;49.550;11.940;2023-06-14T14:46:57;6.10;;;1.92;;
36597;SDS011;22607;49.550;11.940;2023-06-14T14:49:24;6.00;;;2.20;;
36597;SDS011;22607;49.550;11.940;2023-06-14T14:51:50;5.60;;;1.80;;
36597;SDS011;22607;49.550;11.940;2023-06-14T14:54:17;5.32;;;1.80;;
36597;SDS011;22607;49.550;11.940;2023-06-14T14:59:29;6.90;;;1.85;;
36597;SDS011;22607;49.550;11.940;2023-06-14T15:01:56;5.90;;;1.98;;
36597;SDS011;22607;49.550;11.940;2023-06-14T15:04:22;5.13;;;1.60;;
36597;SDS011;22607;49.550;11.940;2023-06-14T15:06:49;5.07;;;1.73;;
36597;SDS011;22607;49.550;11.940;2023-06-14T15:09:16;5.90;;;1.63;;
36597;SDS011;22607;49.550;11.940;2023-06-14T15:11:42;7.07;;;1.92;;
36597;SDS011;22607;49.550;11.940;2023-06-14T15:14:10;5.20;;;1.75;;
36597;SDS011;22607;49.550;11.940;2023-06-14T15:16:37;6.80;;;1.90;;
36597;SDS011;22607;49.550;11.940;2023-06-14T15:19:04;5.38;;;1.85;;
36597;SDS011;22607;49.550;11.940;2023-06-14T15:21:30;4.97;;;1.77;;
36597;SDS011;22607;49.550;11.940;2023-06-14T15:23:57;5.47;;;1.80;;